createdAt,value
2018-09-25T00:00:08.026Z,8.85
2018-09-25T00:10:18.666Z,8.22
2018-09-25T00:20:14.049Z,8.14
2018-09-25T00:23:20.420Z,8.77
2018-09-25T00:26:26.001Z,8.28
2018-09-25T00:33:04.264Z,8.11
2018-09-25T00:36:11.030Z,8.04
2018-09-25T00:39:18.664Z,8.72
2018-09-25T00:45:56.934Z,8.12
2018-09-25T00:49:02.503Z,8.02
2018-09-25T00:52:12.280Z,8.01
2018-09-25T00:55:18.229Z,8.64
2018-09-25T00:58:24.174Z,8.16
2018-09-25T01:04:57.963Z,8.00
2018-09-25T01:08:03.701Z,7.97
2018-09-25T01:24:54.842Z,7.95
2018-09-25T01:28:01.688Z,7.93
2018-09-25T01:31:08.395Z,7.94
2018-09-25T01:41:03.067Z,8.60
2018-09-25T01:50:58.415Z,8.28
2018-09-25T01:54:04.243Z,8.87
2018-09-25T01:57:09.855Z,8.35
2018-09-25T02:00:23.842Z,8.27
2018-09-25T02:06:58.121Z,8.14
2018-09-25T02:20:17.754Z,8.23
2018-09-25T02:26:51.851Z,8.09
2018-09-25T02:29:59.107Z,8.08
2018-09-25T02:33:06.876Z,8.74
2018-09-25T02:43:04.219Z,8.06
2018-09-25T02:46:11.063Z,8.01
2018-09-25T03:03:01.093Z,7.84
2018-09-25T03:09:34.018Z,7.76
2018-09-25T03:16:05.734Z,7.68
2018-09-25T03:19:15.163Z,8.31
2018-09-25T03:22:22.865Z,7.83
2018-09-25T03:42:31.573Z,7.89
2018-09-25T03:45:38.465Z,7.73
2018-09-25T03:52:10.550Z,7.66
2018-09-25T04:05:45.921Z,7.53
2018-09-25T04:08:52.285Z,8.19
2018-09-25T04:11:58.240Z,7.70
2018-09-25T04:21:56.766Z,7.41
2018-09-25T04:25:04.135Z,7.39
2018-09-25T04:28:09.515Z,7.34
2018-09-25T04:31:15.730Z,7.32
2018-09-25T04:34:21.114Z,7.28
2018-09-25T04:41:07.540Z,7.94
2018-09-25T04:44:14.403Z,7.43
2018-09-25T04:47:21.186Z,7.30
2018-09-25T04:50:27.630Z,7.23
2018-09-25T04:53:33.201Z,7.18
2018-09-25T04:56:39.156Z,7.14
2018-09-25T05:06:33.759Z,7.04
2018-09-25T05:09:39.624Z,7.01
2018-09-25T05:12:46.719Z,7.67
2018-09-25T05:19:16.772Z,7.87
2018-09-25T05:22:22.627Z,8.03
2018-09-25T05:25:29.536Z,8.16
2018-09-25T05:28:34.844Z,7.60
2018-09-25T05:35:06.350Z,8.17
2018-09-25T05:41:36.876Z,7.55
2018-09-25T05:44:43.533Z,7.49
2018-09-25T05:51:14.462Z,7.37
2018-09-25T05:54:21.159Z,7.31
2018-09-25T05:57:28.360Z,7.26
2018-09-25T06:10:47.787Z,7.61
2018-09-25T06:13:54.756Z,7.60
2018-09-25T06:17:01.304Z,7.64
2018-09-25T06:20:08.052Z,7.72
2018-09-25T06:26:38.507Z,9.06
2018-09-25T06:29:44.325Z,8.58
2018-09-25T06:36:17.700Z,9.64
2018-09-25T06:39:23.413Z,9.20
2018-09-25T06:42:30.366Z,10.10
2018-09-25T06:45:35.795Z,9.58
2018-09-25T06:48:42.509Z,9.60
2018-09-25T06:51:48.442Z,9.65
2018-09-25T06:54:55.354Z,9.74
2018-09-25T06:58:01.479Z,9.81
2018-09-25T07:01:13.441Z,9.86
2018-09-25T07:04:19.092Z,9.95
2018-09-25T07:10:49.965Z,10.19
2018-09-25T07:13:56.579Z,11.32
2018-09-25T07:20:31.100Z,10.77
2018-09-25T07:23:37.030Z,10.84
2018-09-25T07:26:42.503Z,10.95
2018-09-25T07:29:49.544Z,11.10
2018-09-25T07:32:55.708Z,11.15
2018-09-25T07:36:02.330Z,11.33
2018-09-25T07:39:12.738Z,11.41
2018-09-25T07:42:20.044Z,11.48
2018-09-25T07:45:33.524Z,11.63
2018-09-25T07:48:43.010Z,11.76
2018-09-25T07:55:22.066Z,11.92
2018-09-25T07:58:43.519Z,13.15
2018-09-25T08:02:04.097Z,12.44
2018-09-25T08:05:09.438Z,12.27
2018-09-25T08:08:23.503Z,12.25
2018-09-25T08:11:30.184Z,12.35
2018-09-25T08:14:46.312Z,12.55
2018-09-25T08:18:11.241Z,12.78
2018-09-25T08:21:17.284Z,12.93
2018-09-25T08:24:23.914Z,12.91
2018-09-25T08:27:29.237Z,12.94
2018-09-25T08:34:01.195Z,13.01
2018-09-25T08:37:06.932Z,13.09
2018-09-25T08:40:12.347Z,13.20
2018-09-25T08:43:18.635Z,13.26
2018-09-25T08:46:24.810Z,13.43
2018-09-25T08:49:30.414Z,13.43
2018-09-25T08:52:38.255Z,14.92
2018-09-25T08:55:58.927Z,13.91
2018-09-25T08:59:06.652Z,13.80
2018-09-25T09:09:00.966Z,13.83
2018-09-25T09:12:07.317Z,13.86
2018-09-25T09:18:39.596Z,13.97
2018-09-25T09:21:45.220Z,15.39
2018-09-25T09:24:52.252Z,15.71
2018-09-25T09:27:58.815Z,14.76
2018-09-25T09:34:37.012Z,14.78
2018-09-25T09:37:44.402Z,16.04
2018-09-25T09:40:50.666Z,15.46
2018-09-25T09:43:57.430Z,15.43
2018-09-25T09:47:14.212Z,15.33
2018-09-25T09:50:26.006Z,15.54
2018-09-25T09:53:47.477Z,15.45
2018-09-25T09:56:55.645Z,15.38
2018-09-25T10:00:01.228Z,16.55
2018-09-25T10:03:08.133Z,16.28
2018-09-25T10:06:16.057Z,15.37
2018-09-25T10:09:23.457Z,15.20
2018-09-25T10:12:29.831Z,15.38
2018-09-25T10:15:38.479Z,15.53
2018-09-25T10:18:44.700Z,15.30
2018-09-25T10:21:50.671Z,15.04
2018-09-25T10:24:57.421Z,16.78
2018-09-25T10:28:03.443Z,15.52
2018-09-25T10:31:09.574Z,15.51
2018-09-25T10:34:15.422Z,15.65
2018-09-25T10:40:57.545Z,15.84
2018-09-25T10:44:03.166Z,15.46
2018-09-25T10:47:10.179Z,15.13
2018-09-25T10:50:16.183Z,15.34
2018-09-25T10:56:48.065Z,15.67
2018-09-25T10:59:56.248Z,15.32
2018-09-25T11:03:03.371Z,15.45
2018-09-25T11:06:15.694Z,15.63
2018-09-25T11:12:47.411Z,15.24
2018-09-25T11:15:54.475Z,16.39
2018-09-25T11:19:05.777Z,15.35
2018-09-25T11:22:12.518Z,15.43
2018-09-25T11:25:18.839Z,16.86
2018-09-25T11:28:26.070Z,17.04
2018-09-25T11:31:34.269Z,15.80
2018-09-25T11:34:40.888Z,15.70
2018-09-25T11:37:48.728Z,15.66
2018-09-25T11:40:55.714Z,15.92
2018-09-25T11:44:05.072Z,16.19
2018-09-25T11:47:11.077Z,16.39
2018-09-25T11:50:30.644Z,16.15
2018-09-25T11:53:36.909Z,15.70
2018-09-25T11:56:45.085Z,16.54
2018-09-25T11:59:52.462Z,15.77
2018-09-25T12:02:58.464Z,15.78
2018-09-25T12:06:08.498Z,15.29
2018-09-25T12:09:16.243Z,14.93
2018-09-25T12:12:29.843Z,15.00
2018-09-25T12:15:40.858Z,15.35
2018-09-25T12:18:47.952Z,15.54
2018-09-25T12:21:55.098Z,15.71
2018-09-25T12:25:02.001Z,15.94
2018-09-25T12:28:07.922Z,16.28
2018-09-25T12:31:20.429Z,16.49
2018-09-25T12:34:32.550Z,16.55
2018-09-25T12:41:06.488Z,16.18
2018-09-25T12:44:14.918Z,16.17
2018-09-25T12:47:26.979Z,16.30
2018-09-25T12:54:00.132Z,16.82
2018-09-25T12:57:07.153Z,16.49
2018-09-25T13:13:56.376Z,16.90
2018-09-25T13:17:04.972Z,16.62
2018-09-25T13:20:14.479Z,16.26
2018-09-25T13:23:21.298Z,16.26
2018-09-25T13:33:22.834Z,17.01
2018-09-25T13:36:35.417Z,16.99
2018-09-25T14:10:36.879Z,17.17
2018-09-25T14:17:13.349Z,16.93
2018-09-25T14:20:19.217Z,16.72
2018-09-25T14:23:26.197Z,16.59
2018-09-25T14:26:34.253Z,16.51
2018-09-25T14:29:40.609Z,16.45
2018-09-25T14:39:38.972Z,15.78
2018-09-25T14:42:46.264Z,15.83
2018-09-25T14:45:53.363Z,15.88
2018-09-25T14:52:26.443Z,15.78
2018-09-25T14:55:31.730Z,15.76
2018-09-25T14:58:40.294Z,15.71
2018-09-25T15:01:44.884Z,16.73
2018-09-25T15:04:53.468Z,15.97
2018-09-25T15:07:59.820Z,15.85
2018-09-25T15:11:05.845Z,15.85
2018-09-25T15:14:13.758Z,15.84
2018-09-25T15:17:19.756Z,15.77
2018-09-25T15:20:25.600Z,16.70
2018-09-25T15:23:31.515Z,15.74
2018-09-25T15:26:38.320Z,15.44
2018-09-25T15:29:45.913Z,15.20
2018-09-25T15:32:55.638Z,15.13
2018-09-25T15:39:30.631Z,14.80
2018-09-25T15:53:09.147Z,14.42
2018-09-25T15:56:23.849Z,14.32
2018-09-25T16:02:54.044Z,14.37
2018-09-25T16:06:02.136Z,14.21
2018-09-25T16:12:34.462Z,13.93
2018-09-25T16:15:43.185Z,13.82
2018-09-25T16:18:49.074Z,13.71
2018-09-25T16:21:59.159Z,13.52
2018-09-25T16:35:18.212Z,12.98
2018-09-25T16:45:13.984Z,12.50
2018-09-25T16:51:47.639Z,12.41
2018-09-25T17:01:57.746Z,11.84
2018-09-25T17:08:28.387Z,11.52
2018-09-25T17:11:41.980Z,11.37
2018-09-25T17:14:48.930Z,11.25
2018-09-25T17:17:54.302Z,11.13
2018-09-25T17:21:01.065Z,11.01
2018-09-25T17:24:06.713Z,10.89
2018-09-25T17:30:37.696Z,10.67
2018-09-25T17:37:08.820Z,11.26
2018-09-25T17:40:14.745Z,10.69
2018-09-25T17:43:21.676Z,10.51
2018-09-25T17:46:43.961Z,10.36
2018-09-25T17:49:50.007Z,10.22
2018-09-25T17:56:21.927Z,10.01
2018-09-25T17:59:27.265Z,9.95
2018-09-25T18:02:33.800Z,10.60
2018-09-25T18:05:39.248Z,10.06
2018-09-25T18:08:45.897Z,9.92
2018-09-25T18:15:16.528Z,9.75
2018-09-25T18:18:22.713Z,9.68
2018-09-25T18:25:08.885Z,9.54
2018-09-25T18:28:19.458Z,9.47
2018-09-25T18:31:27.348Z,9.43
2018-09-25T18:34:33.357Z,9.39
2018-09-25T18:37:39.662Z,9.32
2018-09-25T18:40:46.287Z,9.28
2018-09-25T18:47:18.031Z,9.15
2018-09-25T18:53:50.189Z,8.97
2018-09-25T19:03:25.531Z,9.01
2018-09-25T19:06:15.745Z,8.91
2018-09-25T19:19:26.859Z,8.68
2018-09-25T19:35:59.572Z,9.29
2018-09-25T19:41:55.582Z,8.60
2018-09-25T20:14:53.946Z,7.96
2018-09-25T20:35:27.775Z,7.76
2018-09-25T20:38:33.967Z,7.69
2018-09-25T20:41:39.394Z,7.62
2018-09-25T20:58:25.167Z,7.39
2018-09-25T21:08:21.730Z,7.25
2018-09-25T21:31:57.242Z,7.04
2018-09-25T22:19:31.732Z,6.67
2018-09-25T22:46:29.931Z,7.24
2018-09-25T22:59:51.633Z,6.60
2018-09-25T23:02:57.228Z,6.58
2018-09-25T23:06:03.106Z,6.56
2018-09-25T23:15:58.529Z,6.52
2018-09-25T23:29:22.794Z,6.38
2018-09-25T23:35:55.564Z,6.58
2018-09-25T23:45:27.691Z,6.62
2018-09-25T23:48:16.709Z,6.57
